Time;durP1;ratioP1;P1;durP2;ratioP2;P2;SDS_P1;SDS_P2;PMS_P1;PMS_P2;Temp;Humidity;BMP_temperature;BMP_pressure;BME280_temperature;BME280_humidity;BME280_pressure;Samples;Min_cycle;Max_cycle;Signal;HPM_P1;HPM_P2
2023/09/18 00:01:15;;;;;;;4.45;1.00;;;;;;;;;;5026912;28;20562;-81
2023/09/18 00:03:41;;;;;;;1.85;0.60;;;;;;;;;;5027525;28;20025;-81
2023/09/18 00:06:08;;;;;;;1.02;0.50;;;;;;;;;;5031391;28;20388;-80
2023/09/18 00:08:34;;;;;;;4.20;1.00;;;;;;;;;;5031218;28;20029;-81
2023/09/18 00:11:00;;;;;;;2.83;1.38;;;;;;;;;;5031546;28;20052;-80
2023/09/18 00:13:26;;;;;;;2.80;1.05;;;;;;;;;;5030913;28;20018;-81
2023/09/18 00:15:55;;;;;;;1.45;0.75;;;18.90;99.90;;;;;;5026447;28;20129;-82
2023/09/18 00:18:21;;;;;;;5.72;1.33;;;;;;;;;;5028504;28;20486;-81
2023/09/18 00:20:48;;;;;;;3.47;1.02;;;;;;;;;;5031060;28;20030;-81
2023/09/18 00:23:15;;;;;;;2.75;1.13;;;;;;;;;;5030609;28;20024;-80
2023/09/18 00:25:42;;;;;;;3.55;1.08;;;;;;;;;;5030735;28;20647;-80
2023/09/18 00:28:08;;;;;;;2.50;0.67;;;;;;;;;;5030452;28;20029;-81
2023/09/18 00:30:34;;;;;;;0.65;0.60;;;;;;;;;;5030823;28;20298;-82
2023/09/18 00:33:00;;;;;;;3.53;1.00;;;;;;;;;;5030556;28;20227;-81
2023/09/18 00:35:26;;;;;;;1.95;1.20;;;;;;;;;;5030868;28;20064;-82
2023/09/18 00:37:52;;;;;;;2.17;1.70;;;;;;;;;;5030702;28;20022;-82
2023/09/18 00:40:19;;;;;;;3.42;1.27;;;19.40;99.90;;;;;;5030651;28;20025;-81
2023/09/18 00:42:45;;;;;;;1.05;0.55;;;;;;;;;;5029733;28;20109;-81
2023/09/18 00:45:11;;;;;;;2.38;2.17;;;19.50;99.90;;;;;;5026436;28;20092;-81
2023/09/18 00:47:37;;;;;;;1.23;0.80;;;;;;;;;;5027898;28;20025;-81
2023/09/18 00:50:04;;;;;;;1.55;0.80;;;19.50;99.90;;;;;;5030336;28;20045;-82
2023/09/18 00:52:30;;;;;;;1.88;0.82;;;;;;;;;;5030607;28;20101;-82
2023/09/18 00:54:56;;;;;;;5.25;1.38;;;;;;;;;;5030736;28;20461;-81
2023/09/18 00:57:22;;;;;;;5.07;1.60;;;;;;;;;;5030012;28;20021;-81
2023/09/18 00:59:48;;;;;;;3.45;0.98;;;;;;;;;;5030364;28;20052;-81
2023/09/18 01:02:14;;;;;;;3.72;0.50;;;;;;;;;;5030459;28;20026;-81
2023/09/18 01:04:43;;;;;;;7.50;0.82;;;;;;;;;;5030220;28;20026;-80
2023/09/18 01:07:09;;;;;;;4.13;0.70;;;;;;;;;;5030081;28;20018;-80
2023/09/18 01:09:36;;;;;;;2.38;0.80;;;;;;;;;;5029832;28;20045;-80
2023/09/18 01:12:05;;;;;;;2.10;0.38;;;19.30;99.90;;;;;;5029966;28;20033;-81
2023/09/18 01:14:31;;;;;;;1.98;0.90;;;;;;;;;;5029753;28;20032;-80
2023/09/18 01:16:58;;;;;;;0.88;0.35;;;19.60;99.90;;;;;;5029776;28;20029;-80
2023/09/18 01:19:46;;;;;;;1.17;0.50;;;19.40;99.90;;;;;;5031882;28;20022;-80
2023/09/18 01:22:17;;;;;;;2.92;0.68;;;19.30;99.90;;;;;;5017952;28;20029;-80
2023/09/18 01:24:44;;;;;;;1.50;0.65;;;19.20;99.90;;;;;;5029727;28;20060;-81
2023/09/18 01:27:12;;;;;;;1.80;0.77;;;;;;;;;;5029446;28;20022;-81
2023/09/18 01:29:38;;;;;;;5.32;0.50;;;;;;;;;;5029733;28;20041;-81
2023/09/18 01:32:05;;;;;;;3.63;0.90;;;19.20;99.90;;;;;;5030032;28;20036;-81
2023/09/18 01:34:41;;;;;;;0.95;0.40;;;19.30;99.90;;;;;;5028888;28;20053;-80
2023/09/18 01:37:08;;;;;;;6.20;1.33;;;;;;;;;;5025110;28;20034;-80
2023/09/18 01:39:35;;;;;;;1.17;0.50;;;;;;;;;;5027649;28;20025;-81
2023/09/18 01:42:05;;;;;;;5.47;1.38;;;19.30;99.90;;;;;;5029239;28;20531;-81
2023/09/18 01:44:32;;;;;;;4.40;0.88;;;19.30;99.90;;;;;;5028096;28;20036;-80
2023/09/18 01:47:12;;;;;;;5.60;0.75;;;19.20;99.90;;;;;;5029567;28;20033;-80
2023/09/18 01:49:39;;;;;;;0.80;0.60;;;19.30;99.90;;;;;;5029308;28;20513;-81
2023/09/18 01:52:06;;;;;;;1.40;0.90;;;19.20;99.90;;;;;;5028808;28;20056;-80
2023/09/18 01:54:32;;;;;;;2.45;0.80;;;19.20;99.90;;;;;;5029134;28;20033;-81
2023/09/18 01:56:58;;;;;;;1.40;0.83;;;;;;;;;;5029389;28;20030;-81
2023/09/18 01:59:25;;;;;;;5.43;0.60;;;;;;;;;;5029424;28;20025;-81
2023/09/18 02:01:52;;;;;;;3.97;1.13;;;19.20;99.90;;;;;;5029291;28;20025;-82
2023/09/18 02:04:18;;;;;;;1.27;1.08;;;;;;;;;;5029413;28;20079;-82
2023/09/18 02:06:44;;;;;;;2.47;0.68;;;19.10;99.90;;;;;;5029595;28;20025;-81
2023/09/18 02:09:10;;;;;;;3.83;0.50;;;;;;;;;;5024195;28;20499;-82
2023/09/18 02:11:39;;;;;;;4.47;0.65;;;19.20;99.90;;;;;;5021145;28;20068;-81
2023/09/18 02:14:05;;;;;;;5.57;0.80;;;;;;;;;;5017533;28;20049;-80
2023/09/18 02:16:31;;;;;;;1.75;1.05;;;;;;;;;;5028712;28;20490;-81
2023/09/18 02:18:57;;;;;;;2.28;1.42;;;;;;;;;;5028997;28;20029;-82
2023/09/18 02:21:23;;;;;;;4.35;1.05;;;18.80;99.90;;;;;;5028270;28;20731;-82
2023/09/18 02:23:52;;;;;;;2.75;0.52;;;18.70;99.90;;;;;;5028746;28;20029;-82
2023/09/18 02:26:19;;;;;;;3.47;0.77;;;;;;;;;;5028585;28;20200;-81
2023/09/18 02:28:45;;;;;;;3.20;1.25;;;;;;;;;;5028749;28;20029;-80
2023/09/18 02:31:11;;;;;;;3.75;0.77;;;;;;;;;;5025503;28;20124;-81
2023/09/18 02:33:37;;;;;;;5.28;0.98;;;18.60;99.90;;;;;;5027628;28;20024;-81
2023/09/18 02:36:03;;;;;;;3.25;1.13;;;;;;;;;;5059423;28;20867;-82
2023/09/18 02:38:30;;;;;;;3.90;0.82;;;;;;;;;;5027434;28;20075;-82
2023/09/18 02:40:56;;;;;;;2.10;1.50;;;;;;;;;;5029165;28;20029;-82
2023/09/18 02:43:23;;;;;;;0.98;0.57;;;;;;;;;;5026854;28;20577;-82
2023/09/18 02:45:49;;;;;;;11.77;0.85;;;;;;;;;;5028804;28;20659;-81
2023/09/18 02:48:15;;;;;;;0.70;0.63;;;;;;;;;;5030879;28;20036;-81
2023/09/18 02:50:41;;;;;;;4.68;0.55;;;;;;;;;;5032102;28;20045;-81
2023/09/18 02:53:11;;;;;;;2.22;0.80;;;18.70;99.90;;;;;;5032464;28;20018;-81
2023/09/18 02:55:37;;;;;;;2.47;0.70;;;;;;;;;;5032535;28;20029;-82
2023/09/18 02:58:03;;;;;;;1.27;0.52;;;;;;;;;;5032368;28;20524;-81
2023/09/18 03:00:29;;;;;;;4.20;1.45;;;;;;;;;;5032711;28;20368;-80
2023/09/18 03:02:55;;;;;;;2.30;0.55;;;;;;;;;;5032869;28;20075;-80
2023/09/18 03:05:21;;;;;;;2.60;1.23;;;;;;;;;;5031108;28;20029;-80
2023/09/18 03:07:47;;;;;;;5.25;0.85;;;18.70;99.90;;;;;;5032132;28;20029;-81
2023/09/18 03:10:15;;;;;;;2.17;1.00;;;;;;;;;;5032148;28;20065;-80
2023/09/18 03:12:41;;;;;;;0.95;0.52;;;;;;;;;;5032242;28;20299;-80
2023/09/18 03:15:07;;;;;;;1.08;0.85;;;;;;;;;;5031994;28;20032;-80
2023/09/18 03:17:33;;;;;;;0.82;0.77;;;;;;;;;;5031957;28;20537;-81
2023/09/18 03:19:59;;;;;;;3.20;0.60;;;;;;;;;;5032518;28;20065;-81
2023/09/18 03:22:25;;;;;;;2.78;0.50;;;18.80;99.90;;;;;;5031503;28;20023;-80
2023/09/18 03:24:51;;;;;;;1.00;0.40;;;;;;;;;;5033159;28;20029;-81
2023/09/18 03:27:17;;;;;;;2.38;0.60;;;;;;;;;;5033759;28;20044;-80
2023/09/18 03:29:43;;;;;;;1.60;0.60;;;;;;;;;;5031810;28;20025;-80
2023/09/18 03:32:12;;;;;;;2.63;0.50;;;;;;;;;;5031607;28;20498;-80
2023/09/18 03:34:38;;;;;;;2.97;0.50;;;;;;;;;;5031824;28;20049;-80
2023/09/18 03:37:04;;;;;;;1.58;0.65;;;;;;;;;;5031398;28;20506;-81
2023/09/18 03:39:30;;;;;;;3.08;0.75;;;;;;;;;;5030889;28;20026;-80
2023/09/18 03:41:56;;;;;;;1.60;0.55;;;;;;;;;;5031295;28;20442;-81
2023/09/18 03:44:22;;;;;;;1.45;0.63;;;;;;;;;;5031679;28;20022;-81
2023/09/18 03:46:48;;;;;;;0.73;0.40;;;;;;;;;;5031503;28;20072;-81
2023/09/18 03:49:14;;;;;;;1.63;0.52;;;;;;;;;;5031494;28;20109;-80
2023/09/18 03:51:40;;;;;;;5.07;0.73;;;;;;;;;;5031000;28;20029;-82
2023/09/18 03:54:06;;;;;;;5.35;0.70;;;;;;;;;;5031546;28;20030;-81
2023/09/18 03:56:32;;;;;;;5.50;0.60;;;;;;;;;;5026683;28;20570;-81
2023/09/18 03:59:00;;;;;;;1.45;0.60;;;19.00;99.90;;;;;;5023929;28;20057;-81
2023/09/18 04:01:26;;;;;;;0.40;0.30;;;;;;;;;;5031520;28;20026;-81
2023/09/18 04:03:53;;;;;;;6.57;0.80;;;;;;;;;;5031404;28;20069;-81
2023/09/18 04:06:21;;;;;;;0.80;0.50;;;18.70;99.90;;;;;;5031275;28;20109;-81
2023/09/18 04:08:47;;;;;;;2.15;0.70;;;;;;;;;;5031565;28;20031;-82
2023/09/18 04:11:13;;;;;;;0.38;0.38;;;;;;;;;;5031413;28;20503;-81
2023/09/18 04:13:39;;;;;;;0.73;0.40;;;;;;;;;;5031189;28;20026;-81
2023/09/18 04:16:05;;;;;;;4.97;1.58;;;;;;;;;;5031074;28;20025;-80
2023/09/18 04:18:31;;;;;;;1.80;0.70;;;;;;;;;;5030961;28;20028;-81
2023/09/18 04:20:57;;;;;;;0.93;0.43;;;;;;;;;;5030629;28;20029;-80
2023/09/18 04:23:25;;;;;;;2.10;0.60;;;19.80;99.90;;;;;;5030730;28;20026;-81
2023/09/18 04:25:52;;;;;;;1.13;0.75;;;18.50;99.90;;;;;;5030845;28;20489;-81
2023/09/18 04:28:19;;;;;;;7.32;0.77;;;18.40;99.90;;;;;;5029157;28;20067;-81
2023/09/18 04:30:45;;;;;;;2.10;0.63;;;18.40;99.90;;;;;;5030746;28;20037;-81
2023/09/18 04:33:14;;;;;;;1.88;0.77;;;;;;;;;;5030523;28;20030;-81
2023/09/18 04:35:41;;;;;;;8.95;1.23;;;18.40;99.90;;;;;;5030885;28;20053;-81
2023/09/18 04:38:10;;;;;;;1.65;0.80;;;18.50;99.90;;;;;;5026006;28;20038;-82
2023/09/18 04:40:37;;;;;;;1.40;0.77;;;18.50;99.90;;;;;;5030606;28;20095;-81
2023/09/18 04:43:06;;;;;;;7.95;1.15;;;;;;;;;;5030436;28;20036;-81
2023/09/18 04:45:32;;;;;;;7.13;1.85;;;;;;;;;;5030597;28;20074;-81
2023/09/18 04:47:59;;;;;;;3.58;1.08;;;;;;;;;;5030122;28;20493;-82
2023/09/18 04:50:26;;;;;;;7.45;0.93;;;;;;;;;;5029657;28;20062;-81
2023/09/18 04:52:54;;;;;;;;;;;18.50;99.90;;;;;;5030577;28;20119;-80
2023/09/18 04:55:21;;;;;;;2.25;0.80;;;;;;;;;;5030258;28;19905;-81
2023/09/18 04:57:46;;;;;;;3.75;0.70;;;18.90;99.90;;;;;;5029879;28;20045;-80
2023/09/18 05:00:13;;;;;;;2.83;0.73;;;;;;;;;;5029221;28;20042;-81
2023/09/18 05:02:40;;;;;;;1.58;0.73;;;18.50;99.90;;;;;;5026788;28;20558;-82
2023/09/18 05:05:08;;;;;;;4.03;1.30;;;;;;;;;;5030067;28;20120;-83
2023/09/18 05:07:34;;;;;;;4.90;0.80;;;;;;;;;;5029648;28;20040;-81
2023/09/18 05:10:00;;;;;;;4.22;1.50;;;;;;;;;;5028944;28;20041;-81
2023/09/18 05:12:26;;;;;;;1.00;0.60;;;;;;;;;;5030590;28;20026;-81
2023/09/18 05:14:52;;;;;;;9.25;1.25;;;;;;;;;;5024518;28;20037;-81
2023/09/18 05:17:18;;;;;;;2.28;1.00;;;;;;;;;;5029772;28;20041;-81
2023/09/18 05:19:45;;;;;;;4.65;2.15;;;;;;;;;;5026569;28;20018;-81
2023/09/18 05:22:11;;;;;;;2.30;0.80;;;;;;;;;;5026984;28;20708;-81
2023/09/18 05:24:40;;;;;;;10.90;1.65;;;18.20;99.90;;;;;;5030108;28;20033;-82
2023/09/18 05:27:07;;;;;;;8.95;0.85;;;;;;;;;;5029554;28;20384;-82
2023/09/18 05:29:33;;;;;;;6.65;1.75;;;;;;;;;;5027311;28;20045;-83
2023/09/18 05:31:59;;;;;;;2.42;1.02;;;;;;;;;;5021787;28;20022;-82
2023/09/18 05:34:25;;;;;;;1.35;0.93;;;;;;;;;;5018824;28;20613;-82
2023/09/18 05:36:51;;;;;;;0.98;0.88;;;;;;;;;;5028063;28;20056;-82
2023/09/18 05:39:18;;;;;;;6.95;0.70;;;;;;;;;;5020856;28;20033;-83
2023/09/18 05:41:44;;;;;;;2.53;0.97;;;;;;;;;;5015685;28;20026;-82
2023/09/18 05:44:10;;;;;;;3.78;1.27;;;;;;;;;;5027130;28;20036;-82
2023/09/18 05:46:36;;;;;;;1.35;0.73;;;;;;;;;;5027813;28;20490;-83
2023/09/18 05:49:02;;;;;;;5.03;1.33;;;;;;;;;;5024989;28;20025;-82
2023/09/18 05:51:28;;;;;;;2.33;0.93;;;;;;;;;;5016565;28;20038;-82
2023/09/18 05:53:54;;;;;;;6.65;1.00;;;;;;;;;;5022504;28;20109;-82
2023/09/18 05:56:20;;;;;;;1.88;0.90;;;;;;;;;;5019638;28;20534;-81
2023/09/18 05:58:46;;;;;;;5.00;1.23;;;;;;;;;;5021098;28;20116;-81
2023/09/18 06:01:12;;;;;;;1.30;0.68;;;;;;;;;;5022163;28;20124;-79
2023/09/18 06:03:39;;;;;;;0.82;0.50;;;;;;;;;;5019468;28;20053;-79
2023/09/18 06:06:08;;;;;;;6.75;0.68;;;18.20;99.90;;;;;;5027524;28;20509;-79
2023/09/18 06:08:34;;;;;;;1.77;1.10;;;;;;;;;;5019900;28;20029;-79
2023/09/18 06:11:00;;;;;;;1.98;0.70;;;;;;;;;;5042768;28;20395;-80
2023/09/18 06:13:27;;;;;;;3.42;0.77;;;;;;;;;;5027811;28;20026;-79
2023/09/18 06:15:56;;;;;;;0.68;0.43;;;18.40;99.90;;;;;;5027327;28;20031;-78
2023/09/18 06:18:23;;;;;;;1.27;0.70;;;;;;;;;;5027788;28;20087;-79
2023/09/18 06:20:49;;;;;;;4.25;0.93;;;18.50;99.90;;;;;;5027320;28;20037;-79
2023/09/18 06:23:15;;;;;;;4.78;0.80;;;;;;;;;;5027559;28;20024;-79
2023/09/18 06:25:41;;;;;;;16.92;1.17;;;;;;;;;;5027730;28;20075;-79
2023/09/18 06:28:07;;;;;;;1.23;0.73;;;;;;;;;;5028003;28;20022;-78
2023/09/18 06:30:36;;;;;;;3.88;1.00;;;;;;;;;;5026552;28;20060;-78
2023/09/18 06:33:03;;;;;;;4.85;0.85;;;;;;;;;;5027679;28;20037;-79
2023/09/18 06:35:30;;;;;;;2.63;0.82;;;;;;;;;;5025335;28;20435;-79
2023/09/18 06:37:58;;;;;;;2.08;0.80;;;;;;;;;;5027195;28;20021;-79
2023/09/18 06:40:25;;;;;;;8.98;1.13;;;;;;;;;;5026438;28;20167;-78
2023/09/18 06:42:52;;;;;;;1.27;0.70;;;;;;;;;;5022667;28;20125;-81
2023/09/18 06:45:18;;;;;;;1.92;0.70;;;;;;;;;;5009141;28;20041;-81
2023/09/18 06:47:45;;;;;;;0.65;0.50;;;;;;;;;;5021643;28;20117;-81
2023/09/18 06:50:12;;;;;;;2.25;0.50;;;;;;;;;;5014883;28;20115;-80
2023/09/18 06:52:38;;;;;;;0.45;0.40;;;;;;;;;;5022693;28;20033;-82
2023/09/18 06:55:05;;;;;;;5.07;1.05;;;;;;;;;;5021591;28;20067;-82
2023/09/18 06:57:31;;;;;;;11.57;1.20;;;;;;;;;;5020670;28;20026;-81
2023/09/18 06:59:57;;;;;;;1.42;0.77;;;;;;;;;;5007723;28;20652;-78
2023/09/18 07:02:23;;;;;;;4.50;0.77;;;;;;;;;;5019362;28;20029;-79
2023/09/18 07:04:49;;;;;;;1.70;0.80;;;;;;;;;;5025818;28;20159;-78
2023/09/18 07:07:15;;;;;;;2.25;1.63;;;19.40;99.90;;;;;;5021906;28;20466;-78
2023/09/18 07:09:42;;;;;;;1.90;0.70;;;;;;;;;;5020162;28;20029;-78
2023/09/18 07:12:11;;;;;;;6.70;1.15;;;19.70;99.90;;;;;;5020927;28;20045;-79
2023/09/18 07:14:37;;;;;;;0.95;0.70;;;;;;;;;;5021206;28;20028;-79
2023/09/18 07:17:04;;;;;;;1.48;1.10;;;20.00;99.90;;;;;;5024639;28;20034;-84
2023/09/18 07:19:30;;;;;;;3.63;1.02;;;;;;;;;;5018386;28;20029;-83
2023/09/18 07:21:56;;;;;;;4.63;0.90;;;;;;;;;;5025168;28;20079;-84
2023/09/18 07:24:22;;;;;;;2.13;0.57;;;;;;;;;;5025836;28;20163;-81
2023/09/18 07:26:48;;;;;;;2.03;0.90;;;;;;;;;;5018120;28;20515;-81
2023/09/18 07:29:17;;;;;;;2.08;0.55;;;;;;;;;;5015921;28;20021;-80
2023/09/18 07:31:44;;;;;;;1.20;0.70;;;20.30;99.90;;;;;;5017231;28;20071;-81
2023/09/18 07:34:10;;;;;;;7.10;0.77;;;;;;;;;;5022621;28;20499;-80
2023/09/18 07:36:36;;;;;;;12.03;2.07;;;;;;;;;;5030423;28;20617;-81
2023/09/18 07:39:04;;;;;;;5.47;0.93;;;20.30;99.90;;;;;;5018199;28;20033;-81
2023/09/18 07:41:30;;;;;;;;;;;;;;;;;;5030923;28;20041;-81
2023/09/18 07:43:58;;;;;;;7.35;1.55;;;;;;;;;;5027252;28;19913;-81
2023/09/18 07:46:24;;;;;;;4.38;0.88;;;;;;;;;;5025630;28;20465;-82
2023/09/18 07:48:50;;;;;;;3.22;0.80;;;;;;;;;;5020007;28;20386;-83
2023/09/18 07:51:16;;;;;;;4.63;0.77;;;;;;;;;;5029243;28;20195;-80
2023/09/18 07:53:42;;;;;;;1.65;0.90;;;;;;;;;;5025786;28;20029;-82
2023/09/18 07:56:08;;;;;;;6.63;0.95;;;;;;;;;;5029288;28;20671;-81
2023/09/18 07:58:38;;;;;;;3.20;0.85;;;;;;;;;;5012106;28;20045;-81
2023/09/18 08:01:10;;;;;;;7.60;1.20;;;;;;;;;;5016355;28;20116;-84
2023/09/18 08:03:36;;;;;;;0.93;0.65;;;;;;;;;;5024785;28;20033;-85
2023/09/18 08:06:04;;;;;;;3.83;0.93;;;;;;;;;;5022750;28;20030;-83
2023/09/18 08:08:32;;;;;;;2.70;1.65;;;;;;;;;;5019802;28;20033;-78
2023/09/18 08:10:58;;;;;;;4.40;0.95;;;;;;;;;;5027741;28;20013;-85
2023/09/18 08:13:24;;;;;;;0.73;0.47;;;20.90;99.90;;;;;;5027786;28;20029;-82
2023/09/18 08:15:50;;;;;;;1.48;0.85;;;;;;;;;;5027888;28;20025;-82
2023/09/18 08:18:16;;;;;;;0.85;0.60;;;;;;;;;;5017069;28;20033;-82
2023/09/18 08:20:43;;;;;;;2.40;0.65;;;21.10;99.90;;;;;;5020510;28;20728;-83
2023/09/18 08:23:12;;;;;;;4.85;0.73;;;;;;;;;;5030006;28;20029;-80
2023/09/18 08:25:40;;;;;;;4.80;0.88;;;;;;;;;;5028905;28;20036;-81
2023/09/18 08:28:06;;;;;;;1.23;0.70;;;;;;;;;;5026333;28;20029;-81
2023/09/18 08:30:32;;;;;;;4.30;0.77;;;;;;;;;;5022344;28;20025;-81
2023/09/18 08:32:58;;;;;;;6.10;1.20;;;;;;;;;;5029584;28;20033;-83
2023/09/18 08:35:28;;;;;;;1.73;0.75;;;;;;;;;;5023579;28;20172;-82
2023/09/18 08:37:55;;;;;;;1.45;0.55;;;;;;;;;;5017278;28;20017;-85
2023/09/18 08:40:23;;;;;;;2.58;0.82;;;20.10;99.90;;;;;;5020192;28;20036;-84
2023/09/18 08:42:51;;;;;;;1.95;1.35;;;20.20;99.90;;;;;;5027547;28;20032;-84
2023/09/18 08:45:50;;;;;;;3.28;0.55;;;20.30;99.90;;;;;;5022143;28;20401;-84
2023/09/18 08:48:16;;;;;;;16.48;1.58;;;;;;;;;;5021214;28;20048;-86
2023/09/18 08:50:43;;;;;;;4.82;1.30;;;20.40;99.90;;;;;;5024017;28;20874;-86
2023/09/18 08:53:09;;;;;;;6.55;1.55;;;;;;;;;;5061283;28;20047;-87
2023/09/18 08:55:35;;;;;;;3.05;0.80;;;;;;;;;;5027996;28;20044;-85
2023/09/18 08:58:01;;;;;;;44.00;2.15;;;;;;;;;;5015651;28;20391;-85
2023/09/18 09:00:28;;;;;;;8.90;1.10;;;;;;;;;;5020598;28;20480;-85
2023/09/18 09:02:54;;;;;;;4.80;1.67;;;;;;;;;;5023451;28;20111;-85
2023/09/18 09:05:21;;;;;;;3.80;1.05;;;21.30;99.90;;;;;;5026420;28;20037;-85
2023/09/18 09:07:48;;;;;;;4.95;1.40;;;;;;;;;;5025291;28;20022;-78
2023/09/18 09:10:14;;;;;;;3.65;1.00;;;;;;;;;;5013676;28;20041;-80
2023/09/18 09:12:53;;;;;;;5.47;0.70;;;22.50;96.00;;;;;;5014863;28;20097;-80
2023/09/18 09:15:20;;;;;;;5.57;0.88;;;22.70;93.10;;;;;;5013799;28;20032;-78
2023/09/18 09:17:46;;;;;;;2.58;1.23;;;;;;;;;;5018470;28;20061;-79
2023/09/18 09:20:14;;;;;;;5.72;0.73;;;22.50;90.70;;;;;;5020499;28;20068;-78
2023/09/18 09:22:40;;;;;;;;;;;24.50;87.50;;;;;;5018184;28;20025;-78
2023/09/18 09:25:28;;;;;;;1.33;0.70;;;27.30;62.20;;;;;;5026571;28;20013;-78
2023/09/18 09:27:54;;;;;;;3.80;0.68;;;26.00;68.50;;;;;;5028345;28;20112;-79
2023/09/18 09:30:25;;;;;;;2.28;0.57;;;25.10;70.90;;;;;;5019135;28;20029;-78
2023/09/18 09:32:53;;;;;;;5.32;0.90;;;24.50;75.50;;;;;;5027661;28;20402;-79
2023/09/18 09:35:39;;;;;;;0.90;0.63;;;24.50;77.10;;;;;;5018937;28;21667;-78
2023/09/18 09:38:15;;;;;;;28.33;1.65;;;25.00;73.60;;;;;;5021429;28;20038;-78
2023/09/18 09:40:42;;;;;;;3.92;0.82;;;24.50;74.50;;;;;;5023571;28;20718;-78
2023/09/18 09:43:13;;;;;;;5.05;0.95;;;24.30;76.40;;;;;;5029569;28;20773;-78
2023/09/18 09:45:40;;;;;;;4.20;0.82;;;24.70;74.80;;;;;;5022155;28;20486;-86
2023/09/18 09:48:07;;;;;;;5.80;0.90;;;25.60;72.90;;;;;;5017075;28;20507;-79
2023/09/18 09:50:44;;;;;;;8.93;1.10;;;26.20;71.50;;;;;;5014971;28;20040;-79
2023/09/18 09:53:10;;;;;;;3.20;1.80;;;;;;;;;;5027320;28;20049;-79
2023/09/18 09:55:38;;;;;;;6.90;0.70;;;;;;;;;;5024381;28;20033;-79
2023/09/18 09:58:06;;;;;;;2.53;0.75;;;39.30;44.60;;;;;;5018734;28;20097;-80
2023/09/18 10:00:54;;;;;;;3.92;0.88;;;35.90;42.90;;;;;;5021241;28;20136;-79
2023/09/18 10:03:20;;;;;;;0.85;0.30;;;32.00;58.10;;;;;;5027901;28;20032;-78
2023/09/18 10:05:53;;;;;;;5.85;0.70;;;31.00;48.10;;;;;;5026350;28;20038;-79
2023/09/18 10:08:19;;;;;;;10.25;0.70;;;;;;;;;;5022493;28;20041;-79
2023/09/18 10:10:51;;;;;;;2.93;0.97;;;27.10;56.30;;;;;;5024833;28;20609;-78
2023/09/18 10:13:21;;;;;;;4.47;0.90;;;25.80;60.30;;;;;;5017113;28;20715;-78
2023/09/18 10:15:50;;;;;;;1.42;0.93;;;24.90;63.60;;;;;;5015525;28;20084;-79
2023/09/18 10:18:33;;;;;;;1.65;1.02;;;;;;;;;;5016634;28;20144;-79
2023/09/18 10:21:10;;;;;;;2.20;0.73;;;24.80;68.50;;;;;;5030385;28;20063;-78
2023/09/18 10:23:47;;;;;;;1.80;1.13;;;;;;;;;;5029115;28;20032;-80
2023/09/18 10:26:21;;;;;;;9.73;1.45;;;32.30;63.80;;;;;;5028024;28;20026;-79
2023/09/18 10:28:48;;;;;;;2.08;0.98;;;;;;;;;;5017193;28;20026;-80
2023/09/18 10:31:14;;;;;;;2.92;1.45;;;;;;;;;;5028431;28;20025;-79
2023/09/18 10:33:41;;;;;;;3.55;0.60;;;34.50;45.70;;;;;;5017248;28;20029;-82
2023/09/18 10:36:08;;;;;;;0.85;0.40;;;33.90;46.70;;;;;;5028788;28;20046;-80
2023/09/18 10:38:36;;;;;;;5.63;0.75;;;33.30;47.20;;;;;;5020043;28;20528;-80
2023/09/18 10:41:02;;;;;;;6.13;0.60;;;32.20;61.60;;;;;;5021270;28;20511;-80
2023/09/18 10:43:28;;;;;;;3.05;0.70;;;31.20;63.70;;;;;;5022243;28;20022;-79
2023/09/18 10:45:55;;;;;;;1.03;0.50;;;30.60;51.80;;;;;;5020545;28;20103;-80
2023/09/18 10:48:22;;;;;;;1.33;0.65;;;28.70;49.00;;;;;;5021830;28;20060;-80
2023/09/18 10:50:48;;;;;;;4.35;1.25;;;32.60;62.60;;;;;;5023147;28;20120;-79
2023/09/18 10:53:14;;;;;;;6.83;0.70;;;;;;;;;;5026039;28;20108;-79
2023/09/18 10:55:43;;;;;;;3.07;0.80;;;34.80;48.20;;;;;;5025866;28;20033;-79
2023/09/18 10:58:09;;;;;;;1.45;0.95;;;;;;;;;;5023410;28;20056;-80
2023/09/18 11:00:36;;;;;;;7.53;0.93;;;;;;;;;;5017156;28;20033;-80
2023/09/18 11:03:13;;;;;;;0.93;0.88;;;40.20;39.60;;;;;;5026001;28;20039;-80
2023/09/18 11:05:38;;;;;;;3.45;0.70;;;;;;;;;;5025659;28;20088;-80
2023/09/18 11:08:35;;;;;;;1.15;0.47;;;43.70;35.40;;;;;;5022590;28;20026;-80
2023/09/18 11:11:09;;;;;;;0.85;0.43;;;47.70;38.30;;;;;;5020163;28;20032;-80
2023/09/18 11:13:37;;;;;;;3.88;0.82;;;49.40;30.20;;;;;;5028938;28;20040;-77
2023/09/18 11:16:32;;;;;;;4.55;0.50;;;46.40;28.80;;;;;;5026160;28;20034;-77
2023/09/18 11:19:03;;;;;;;3.20;0.68;;;;;;;;;;5022392;28;20084;-77
2023/09/18 11:21:30;;;;;;;4.32;1.15;;;44.60;32.40;;;;;;5025999;28;20529;-77
2023/09/18 11:24:10;;;;;;;3.92;0.60;;;47.40;31.70;;;;;;5017576;28;20513;-77
2023/09/18 11:26:39;;;;;;;2.20;0.77;;;48.00;28.50;;;;;;5030590;28;20596;-77
2023/09/18 11:29:09;;;;;;;4.15;0.90;;;45.20;29.90;;;;;;5020451;28;20112;-80
2023/09/18 11:31:54;;;;;;;8.45;1.33;;;44.10;34.80;;;;;;5027443;28;20093;-80
2023/09/18 11:34:20;;;;;;;3.97;0.50;;;;;;;;;;5030155;28;20045;-80
2023/09/18 11:36:45;;;;;;;1.17;0.50;;;40.00;36.30;;;;;;5029309;28;20040;-79
2023/09/18 11:39:12;;;;;;;1.58;0.60;;;41.70;29.70;;;;;;5021530;28;20108;-80
2023/09/18 11:41:39;;;;;;;10.32;1.15;;;;;;;;;;5030330;28;20057;-80
2023/09/18 11:44:11;;;;;;;2.38;0.82;;;39.30;30.60;;;;;;5029363;28;20026;-79
2023/09/18 11:46:41;;;;;;;1.20;0.60;;;40.90;29.50;;;;;;5030619;28;20033;-80
2023/09/18 11:49:09;;;;;;;3.63;1.35;;;;;;;;;;5023017;28;20060;-80
2023/09/18 11:51:36;;;;;;;2.35;0.75;;;39.50;30.90;;;;;;5027141;28;20050;-84
2023/09/18 11:54:03;;;;;;;1.17;0.50;;;41.80;32.50;;;;;;5025929;28;20029;-79
2023/09/18 11:56:29;;;;;;;1.10;0.50;;;;;;;;;;5023689;28;20052;-79
2023/09/18 11:58:55;;;;;;;;;;;44.80;27.40;;;;;;5023946;28;20048;-78
2023/09/18 12:01:24;;;;;;;3.40;0.57;;;;;;;;;;5028858;28;19917;-76
2023/09/18 12:03:54;;;;;;;1.38;0.50;;;44.40;26.90;;;;;;5024155;28;20048;-76
2023/09/18 12:06:21;;;;;;;2.75;1.52;;;;;;;;;;5016159;28;20562;-77
2023/09/18 12:08:46;;;;;;;;;;;45.70;26.80;;;;;;5019972;28;20036;-76
2023/09/18 12:11:16;;;;;;;2.22;0.68;;;;;;;;;;5023141;28;19909;-76
2023/09/18 12:13:43;;;;;;;0.98;0.73;;;44.50;26.10;;;;;;5023337;28;20026;-76
2023/09/18 12:16:09;;;;;;;1.85;0.30;;;;;;;;;;5029444;28;20030;-79
2023/09/18 12:18:37;;;;;;;0.47;0.30;;;;;;;;;;5021721;28;20095;-79
2023/09/18 12:21:06;;;;;;;1.88;0.65;;;36.40;30.90;;;;;;5027293;28;20049;-80
2023/09/18 12:23:39;;;;;;;0.77;0.30;;;35.00;33.50;;;;;;5028464;28;20021;-79
2023/09/18 12:26:06;;;;;;;2.10;0.80;;;33.50;41.00;;;;;;5019768;28;20021;-79
2023/09/18 12:28:33;;;;;;;4.13;0.95;;;;;;;;;;5022141;28;20036;-78
2023/09/18 12:30:59;;;;;;;;;;;32.40;34.90;;;;;;5022106;28;20030;-79
2023/09/18 12:33:25;;;;;;;3.70;0.70;;;;;;;;;;5017395;28;19962;-78
2023/09/18 12:35:51;;;;;;;1.85;0.80;;;;;;;;;;5018705;28;20050;-79
2023/09/18 12:38:27;;;;;;;2.17;0.73;;;30.30;40.80;;;;;;5018758;28;20383;-78
2023/09/18 12:40:56;;;;;;;2.42;0.40;;;30.50;43.90;;;;;;5023541;28;20515;-85
2023/09/18 12:43:23;;;;;;;1.23;0.73;;;29.90;37.40;;;;;;5017118;28;20076;-85
2023/09/18 12:45:50;;;;;;;1.30;0.73;;;29.80;40.30;;;;;;5027352;28;20376;-84
2023/09/18 12:48:16;;;;;;;2.40;0.90;;;;;;;;;;5024357;28;20111;-82
2023/09/18 12:50:42;;;;;;;1.17;0.57;;;;;;;;;;5024267;28;20041;-83
2023/09/18 12:53:08;;;;;;;3.45;1.13;;;;;;;;;;5027393;28;20095;-83
2023/09/18 12:55:34;;;;;;;1.80;1.13;;;;;;;;;;5027897;28;20037;-83
2023/09/18 12:58:05;;;;;;;3.37;1.60;;;;;;;;;;5025946;28;20100;-84
2023/09/18 13:00:31;;;;;;;4.25;1.05;;;;;;;;;;5022284;28;20511;-85
2023/09/18 13:02:57;;;;;;;4.38;0.85;;;;;;;;;;5022815;28;20037;-88
2023/09/18 13:05:32;;;;;;;1.90;0.68;;;;;;;;;;5016085;28;20140;-86
2023/09/18 13:08:02;;;;;;;1.05;0.60;;;;;;;;;;5017684;28;20033;-82
2023/09/18 13:10:28;;;;;;;2.55;0.60;;;;;;;;;;5016623;28;20098;-82
2023/09/18 13:12:55;;;;;;;1.65;0.68;;;;;;;;;;5023297;28;20478;-82
2023/09/18 13:15:32;;;;;;;1.88;0.63;;;29.80;44.20;;;;;;5022884;28;20030;-81
2023/09/18 13:17:58;;;;;;;;;;;30.20;41.80;;;;;;5013876;28;20052;-82
2023/09/18 13:20:29;;;;;;;1.35;0.60;;;29.50;40.70;;;;;;5019054;28;19947;-82
2023/09/18 13:22:57;;;;;;;3.70;1.58;;;29.00;40.60;;;;;;5028055;28;20135;-82
2023/09/18 13:25:25;;;;;;;1.48;0.80;;;28.90;42.90;;;;;;5025393;28;20118;-81
2023/09/18 13:27:51;;;;;;;2.53;1.30;;;;;;;;;;5058356;28;20035;-84
2023/09/18 13:30:18;;;;;;;6.57;1.58;;;;;;;;;;5016693;28;20021;-82
2023/09/18 13:32:44;;;;;;;3.35;0.77;;;29.10;46.80;;;;;;5027161;28;20459;-80
2023/09/18 13:35:12;;;;;;;7.78;1.33;;;28.70;48.60;;;;;;5025365;28;20824;-80
2023/09/18 13:37:38;;;;;;;3.65;1.40;;;28.40;48.30;;;;;;5027657;28;20033;-80
2023/09/18 13:40:08;;;;;;;2.40;1.03;;;28.70;49.50;;;;;;5017177;28;20023;-80
2023/09/18 13:42:35;;;;;;;2.20;1.08;;;28.90;48.00;;;;;;5016118;28;20021;-81
2023/09/18 13:45:01;;;;;;;7.53;2.05;;;;;;;;;;5023586;28;20025;-80
2023/09/18 13:47:28;;;;;;;5.72;1.25;;;;;;;;;;5026488;28;20024;-80
2023/09/18 13:49:56;;;;;;;6.30;1.10;;;;;;;;;;5016652;28;20033;-80
2023/09/18 13:52:23;;;;;;;1.38;0.95;;;29.10;47.30;;;;;;5023827;28;20321;-80
2023/09/18 13:54:51;;;;;;;;;;;29.00;48.00;;;;;;5028197;28;20544;-80
2023/09/18 13:57:21;;;;;;;5.68;1.70;;;28.30;53.80;;;;;;5027531;28;19909;-80
2023/09/18 13:59:48;;;;;;;2.33;1.50;;;;;;;;;;5018509;28;20041;-80